Startpagina
METAR-TAF:

METAR-TAF

Vliegvelden :

Aeroporto Internacional de Cruzeiro do Sul

Cruzeiro do Sul, Acre, Brazilië

breedte: 07-38S, lengte: 072-40W, hoogte: 170 m

Actueel weer

Dit bericht is 1 uur en het 15 minuten geleden gemaakt, om 18:00 UTC
Wind 6 kt uit het noorden
Temperatuur 32°C
Vochtigheid 71%
Druk 1009 hPa
Zicht 10 km of meer
Verspreide wolken op 2500 ft
Weinig wolken op 3000 ft, Stapelwolken.
Verspreide wolken op 10000 ft

METAR: SBCZ 281800Z 36006KT 9999 SCT025 FEW030TCU SCT100 32/26 Q1009

Tijdstip: 14:15 (19:15 UTC)


TAF: ontbreekt

Waarnemingen en weersverwachtingen van meer dan 4000 vliegvelden (METAR en TAF).

De beschikbare stations zijn de gele en rode punten op de kaart.

Ga met uw muis naar het station om de naam te zien.

Klik dan om waarnemingen en weersverwachtingen te zien.

kaart wijzigen: klik op de groene knoppen met een zwart kruis om in te zoomen, op de groene knop met een streepje om uit te zoomen of op de groene pijlen voor aangrenzende kaarten.


METAR-TAF: